TimeCST,TemperatureF,Dew PointF,Humidity,Sea Level PressureIn,VisibilityMPH,Wind Direction,Wind SpeedMPH,Gust SpeedMPH,PrecipitationIn,Events,Conditions,WindDirDegrees,DateUTC
12:13 AM,32.0,-9999,N/A,29.65,2.0,ENE,3.5,-,0.00,Rain,Light Freezing Rain,60,2013-01-29 06:13:00
12:28 AM,32.0,24.8,75,29.63,3.0,ENE,5.8,-,0.00,Rain,Light Freezing Rain,60,2013-01-29 06:28:00
12:39 AM,32.0,23.0,69,29.61,3.0,NE,6.9,-,0.00,Rain,Light Freezing Rain,50,2013-01-29 06:39:00
12:44 AM,32.0,26.6,80,29.61,2.5,ENE,4.6,-,0.00,Rain,Light Freezing Rain,60,2013-01-29 06:44:00
12:53 AM,32.0,32.0,100,29.65,3.0,ENE,5.8,-,0.00,Rain,Light Freezing Rain,60,2013-01-29 06:53:00
1:01 AM,32.0,32.0,100,29.60,3.0,ENE,4.6,-,0.00,Rain,Light Freezing Rain,60,2013-01-29 07:01:00
1:12 AM,32.0,-9999,N/A,29.61,2.5,Calm,Calm,-,0.00,Rain,Light Freezing Rain,0,2013-01-29 07:12:00
1:21 AM,32.0,-9999,N/A,29.60,3.0,Calm,Calm,-,0.00,Rain,Light Freezing Rain,0,2013-01-29 07:21:00
1:43 AM,32.0,30.2,93,29.60,5.0,Calm,Calm,-,0.01,,Overcast,0,2013-01-29 07:43:00
1:53 AM,32.0,30.0,92,29.63,5.0,ENE,3.5,-,0.01,,Overcast,60,2013-01-29 07:53:00
2:08 AM,32.0,30.2,93,29.58,7.0,ENE,3.5,-,N/A,,Overcast,60,2013-01-29 08:08:00
2:53 AM,32.0,28.9,88,29.61,3.0,NNE,3.5,-,N/A,,Overcast,30,2013-01-29 08:53:00
2:55 AM,32.0,28.4,87,29.58,2.5,NNE,3.5,-,N/A,,Overcast,20,2013-01-29 08:55:00
3:28 AM,32.0,28.4,87,29.58,1.8,NNW,3.5,-,0.00,Snow,Light Snow,330,2013-01-29 09:28:00
3:53 AM,32.0,28.9,88,29.60,1.5,NNW,6.9,-,0.01,Snow,Light Snow,330,2013-01-29 09:53:00
4:01 AM,32.0,28.4,87,29.56,1.2,NNW,6.9,-,0.00,Snow,Light Snow,330,2013-01-29 10:01:00
4:09 AM,32.0,28.4,87,29.56,1.8,NNW,5.8,-,0.00,Snow,Light Snow,330,2013-01-29 10:09:00
4:20 AM,32.0,28.4,87,29.56,2.0,NNW,3.5,-,0.00,Snow,Light Snow,340,2013-01-29 10:20:00
4:25 AM,32.0,28.4,87,29.57,1.8,Calm,Calm,-,0.00,Snow,Light Snow,0,2013-01-29 10:25:00
4:32 AM,32.0,28.4,87,29.58,2.0,NW,4.6,-,0.00,Snow,Light Snow,320,2013-01-29 10:32:00
4:53 AM,32.0,28.9,88,29.60,3.0,NNW,4.6,-,0.00,,Overcast,330,2013-01-29 10:53:00
5:07 AM,32.0,28.4,87,29.56,2.5,NNW,6.9,-,0.00,Snow,Light Snow,330,2013-01-29 11:07:00
5:53 AM,32.0,28.9,88,29.59,3.0,North,5.8,-,0.01,Snow,Light Snow,10,2013-01-29 11:53:00
6:53 AM,32.0,28.0,85,29.59,10.0,North,9.2,-,0.00,,Overcast,350,2013-01-29 12:53:00
7:53 AM,30.0,26.1,85,29.63,7.0,NNW,12.7,-,N/A,,Overcast,330,2013-01-29 13:53:00
8:53 AM,30.0,25.0,82,29.66,6.0,NW,8.1,-,N/A,,Haze,320,2013-01-29 14:53:00
9:53 AM,28.9,25.0,85,29.66,4.0,NNW,12.7,-,N/A,,Overcast,330,2013-01-29 15:53:00
10:53 AM,30.0,24.1,79,29.68,5.0,NNW,13.8,-,N/A,,Haze,340,2013-01-29 16:53:00
11:53 AM,30.0,24.1,79,29.68,6.0,NW,15.0,-,N/A,,Haze,320,2013-01-29 17:53:00
12:06 PM,30.2,24.8,80,29.64,7.0,NNW,13.8,-,N/A,,Mostly Cloudy,340,2013-01-29 18:06:00
12:53 PM,30.0,24.1,79,29.72,8.0,NNW,13.8,19.6,N/A,,Overcast,330,2013-01-29 18:53:00
1:53 PM,30.0,21.9,72,29.70,10.0,North,15.0,-,N/A,,Overcast,350,2013-01-29 19:53:00
2:17 PM,28.4,21.2,74,29.66,10.0,North,15.0,19.6,N/A,,Overcast,350,2013-01-29 20:17:00
2:25 PM,28.4,21.2,74,29.66,10.0,North,15.0,-,N/A,,Overcast,350,2013-01-29 20:25:00
2:53 PM,28.9,21.9,75,29.73,10.0,North,6.9,17.3,N/A,,Overcast,350,2013-01-29 20:53:00
3:53 PM,28.9,21.0,72,29.75,10.0,North,11.5,-,N/A,,Overcast,350,2013-01-29 21:53:00
4:53 PM,28.9,19.9,69,29.77,10.0,North,11.5,-,N/A,,Overcast,350,2013-01-29 22:53:00
5:53 PM,28.0,19.9,72,29.76,10.0,NNW,16.1,-,N/A,,Overcast,340,2013-01-29 23:53:00
6:53 PM,27.0,19.9,75,29.79,10.0,North,15.0,19.6,N/A,,Overcast,350,2013-01-30 00:53:00
7:53 PM,26.1,19.0,75,29.80,10.0,NNW,16.1,-,N/A,,Overcast,340,2013-01-30 01:53:00
8:53 PM,26.1,18.0,71,29.81,10.0,NNW,10.4,-,N/A,,Overcast,340,2013-01-30 02:53:00
9:53 PM,25.0,17.1,72,29.81,9.0,NNW,13.8,-,N/A,,Overcast,330,2013-01-30 03:53:00
10:53 PM,24.1,17.1,75,29.83,10.0,NNW,10.4,-,N/A,,Overcast,330,2013-01-30 04:53:00
11:53 PM,23.0,16.0,74,29.83,9.0,NNW,10.4,-,N/A,,Overcast,340,2013-01-30 05:53:00